Time;durP1;ratioP1;P1;durP2;ratioP2;P2;SDS_P1;SDS_P2;PMS_P1;PMS_P2;Temp;Humidity;BMP_temperature;BMP_pressure;BME280_temperature;BME280_humidity;BME280_pressure;Samples;Min_cycle;Max_cycle;Signal;HPM_P1;HPM_P2
2023/08/11 00:02:16;;;;;;;10.68;4.40;;;16.50;87.80;;;;;;5055268;28;19912;-57
2023/08/11 00:04:45;;;;;;;6.45;4.15;;;16.50;87.60;;;;;;5056424;28;20029;-58
2023/08/11 00:07:10;;;;;;;7.95;3.95;;;16.50;87.50;;;;;;5073404;28;20033;-57
2023/08/11 00:09:37;;;;;;;7.70;3.97;;;16.50;87.50;;;;;;5052276;28;20063;-57
2023/08/11 00:12:04;;;;;;;8.10;4.68;;;16.50;87.50;;;;;;5058602;28;20617;-58
2023/08/11 00:14:29;;;;;;;5.70;3.67;;;16.50;87.30;;;;;;5062208;28;20049;-58
2023/08/11 00:16:58;;;;;;;6.28;4.65;;;16.50;87.30;;;;;;5050272;28;20076;-56
2023/08/11 00:19:27;;;;;;;6.45;4.47;;;16.50;87.20;;;;;;5054895;28;20449;-58
2023/08/11 00:21:53;;;;;;;5.60;4.03;;;16.50;87.10;;;;;;5054820;28;20031;-58
2023/08/11 00:24:24;;;;;;;4.50;4.03;;;16.60;86.90;;;;;;5064199;28;20471;-56
2023/08/11 00:26:53;;;;;;;6.95;4.60;;;16.60;86.80;;;;;;5064595;28;20029;-57
2023/08/11 00:29:21;;;;;;;8.18;5.03;;;16.60;86.70;;;;;;5063882;28;20099;-58
2023/08/11 00:31:50;;;;;;;5.57;4.10;;;16.60;86.70;;;;;;5046625;28;21041;-56
2023/08/11 00:34:16;;;;;;;6.07;4.15;;;16.60;86.50;;;;;;5056292;28;20556;-58
2023/08/11 00:36:42;;;;;;;6.20;4.80;;;16.60;86.60;;;;;;5053780;28;20139;-59
2023/08/11 00:39:09;;;;;;;8.15;4.15;;;16.60;86.40;;;;;;5054526;28;20035;-57
2023/08/11 00:41:36;;;;;;;6.10;4.43;;;16.60;86.40;;;;;;5072429;28;20028;-59
2023/08/11 00:44:02;;;;;;;5.30;4.28;;;16.60;86.50;;;;;;5073490;28;20505;-57
2023/08/11 00:46:28;;;;;;;10.90;4.82;;;16.60;86.50;;;;;;5071660;28;20063;-56
2023/08/11 00:48:56;;;;;;;5.30;3.92;;;16.60;86.40;;;;;;5071073;28;20025;-56
2023/08/11 00:51:24;;;;;;;6.28;4.40;;;16.60;86.50;;;;;;5072752;28;20024;-56
2023/08/11 00:53:51;;;;;;;6.50;4.10;;;16.60;86.40;;;;;;5059552;28;20102;-56
2023/08/11 00:56:24;;;;;;;8.25;4.82;;;16.60;86.30;;;;;;5065025;28;20055;-58
2023/08/11 00:58:55;;;;;;;7.57;5.20;;;16.70;86.10;;;;;;5073355;28;20119;-58
2023/08/11 01:01:22;;;;;;;6.63;4.50;;;16.70;86.10;;;;;;5070462;28;20032;-56
2023/08/11 01:03:50;;;;;;;6.15;4.35;;;16.70;85.90;;;;;;5071503;28;20095;-54
2023/08/11 01:06:38;;;;;;;5.43;4.55;;;16.60;85.80;;;;;;5072497;28;20037;-54
2023/08/11 01:09:28;;;;;;;6.18;3.63;;;16.70;85.90;;;;;;5060002;28;20044;-56
2023/08/11 01:12:12;;;;;;;6.55;4.40;;;16.70;85.90;;;;;;5052775;28;20025;-56
2023/08/11 01:15:04;;;;;;;4.97;3.83;;;16.70;86.00;;;;;;5066706;28;20021;-57
2023/08/11 01:17:32;;;;;;;8.50;4.78;;;16.70;86.00;;;;;;5071630;28;20077;-58
2023/08/11 01:20:06;;;;;;;7.55;4.80;;;16.70;86.00;;;;;;5055113;28;20055;-58
2023/08/11 01:22:37;;;;;;;7.18;4.88;;;16.70;86.10;;;;;;5071366;28;20349;-57
2023/08/11 01:25:09;;;;;;;8.75;5.40;;;16.70;86.00;;;;;;5063566;28;20024;-59
2023/08/11 01:27:44;;;;;;;8.88;5.82;;;16.70;85.90;;;;;;5055142;28;20461;-56
2023/08/11 01:30:12;;;;;;;7.22;4.43;;;16.70;85.80;;;;;;5070767;28;20043;-57
2023/08/11 01:32:39;;;;;;;7.80;5.00;;;16.70;85.80;;;;;;5054496;28;20086;-59
2023/08/11 01:35:06;;;;;;;5.80;4.43;;;16.70;85.80;;;;;;5050351;28;20025;-57
2023/08/11 01:37:33;;;;;;;9.20;4.90;;;16.70;85.90;;;;;;5052441;28;20045;-55
2023/08/11 01:40:05;;;;;;;7.07;5.05;;;16.70;86.00;;;;;;5056359;28;20112;-59
2023/08/11 01:42:32;;;;;;;6.38;4.00;;;16.70;86.10;;;;;;5065836;28;20029;-59
2023/08/11 01:44:58;;;;;;;8.23;5.07;;;16.70;86.00;;;;;;5071167;28;20047;-57
2023/08/11 01:47:25;;;;;;;7.43;4.97;;;16.70;86.10;;;;;;5069269;28;20455;-57
2023/08/11 01:49:54;;;;;;;7.22;4.95;;;16.70;86.10;;;;;;5050734;28;20334;-57
2023/08/11 01:52:22;;;;;;;6.88;5.05;;;16.60;86.20;;;;;;5072010;28;20086;-59
2023/08/11 01:54:49;;;;;;;5.75;4.57;;;16.60;86.30;;;;;;5065534;28;20747;-57
2023/08/11 01:57:18;;;;;;;7.13;4.35;;;16.60;86.30;;;;;;5070679;28;20028;-57
2023/08/11 01:59:45;;;;;;;6.60;4.53;;;16.70;86.40;;;;;;5071339;28;20090;-58
2023/08/11 02:02:12;;;;;;;6.85;4.70;;;16.70;86.40;;;;;;5070544;28;20021;-57
2023/08/11 02:04:41;;;;;;;6.38;5.00;;;16.70;86.50;;;;;;5053293;28;20051;-55
2023/08/11 02:07:09;;;;;;;8.25;5.20;;;16.70;86.50;;;;;;5070751;28;20433;-56
2023/08/11 02:09:36;;;;;;;7.18;5.13;;;16.60;86.40;;;;;;5070601;28;20097;-55
2023/08/11 02:12:03;;;;;;;8.00;4.65;;;16.70;86.60;;;;;;5070729;28;20024;-59
2023/08/11 02:14:30;;;;;;;7.03;4.72;;;16.70;86.60;;;;;;5066373;28;20360;-57
2023/08/11 02:16:56;;;;;;;9.38;4.97;;;16.70;86.70;;;;;;5068439;28;20029;-57
2023/08/11 02:19:22;;;;;;;6.32;4.80;;;16.70;86.70;;;;;;5071514;28;20492;-55
2023/08/11 02:21:49;;;;;;;5.43;4.15;;;16.60;86.70;;;;;;5054057;28;20029;-56
2023/08/11 02:24:17;;;;;;;5.68;4.07;;;16.60;86.70;;;;;;5070365;28;20104;-57
2023/08/11 02:26:45;;;;;;;10.25;5.20;;;16.70;86.80;;;;;;5069847;28;20045;-57
2023/08/11 02:29:12;;;;;;;6.93;4.88;;;16.70;86.80;;;;;;5070486;28;20417;-58
2023/08/11 02:31:39;;;;;;;6.20;4.47;;;16.70;86.80;;;;;;5052932;28;20044;-54
2023/08/11 02:34:06;;;;;;;7.95;6.18;;;16.60;86.90;;;;;;5070340;28;20031;-57
2023/08/11 02:36:31;;;;;;;9.50;6.53;;;16.70;86.90;;;;;;5070274;28;20045;-55
2023/08/11 02:38:58;;;;;;;6.82;5.43;;;16.60;86.90;;;;;;5052835;28;20028;-55
2023/08/11 02:41:28;;;;;;;6.55;5.70;;;16.60;87.00;;;;;;5069490;28;20126;-58
2023/08/11 02:43:54;;;;;;;7.70;5.63;;;16.60;87.10;;;;;;5070427;28;20029;-56
2023/08/11 02:46:22;;;;;;;8.07;4.75;;;16.60;87.10;;;;;;5069762;28;20462;-58
2023/08/11 02:48:49;;;;;;;9.30;5.93;;;16.60;87.20;;;;;;5053785;28;20029;-58
2023/08/11 02:51:16;;;;;;;6.55;5.75;;;16.60;87.20;;;;;;5070426;28;20028;-57
2023/08/11 02:53:45;;;;;;;6.80;5.53;;;16.60;87.30;;;;;;5068861;28;20044;-58
2023/08/11 02:56:15;;;;;;;6.18;4.75;;;16.60;87.30;;;;;;5050894;28;20126;-56
2023/08/11 02:58:42;;;;;;;;;;;16.60;87.40;;;;;;5070938;28;20084;-57
2023/08/11 03:01:09;;;;;;;5.32;4.53;;;16.60;87.30;;;;;;5070767;28;19936;-57
2023/08/11 03:03:36;;;;;;;10.85;5.63;;;16.60;87.50;;;;;;5070634;28;20032;-54
2023/08/11 03:06:04;;;;;;;6.40;5.03;;;16.60;87.40;;;;;;5068700;28;20033;-54
2023/08/11 03:08:32;;;;;;;8.65;5.20;;;16.60;87.40;;;;;;5051838;28;20031;-55
2023/08/11 03:10:59;;;;;;;7.65;5.68;;;16.60;87.40;;;;;;5063825;28;20472;-57
2023/08/11 03:13:28;;;;;;;9.15;6.57;;;16.60;87.40;;;;;;5070424;28;20465;-56
2023/08/11 03:15:55;;;;;;;7.18;5.43;;;16.60;87.40;;;;;;5069540;28;20059;-57
2023/08/11 03:18:22;;;;;;;9.45;7.05;;;16.60;87.50;;;;;;5071156;28;20036;-57
2023/08/11 03:20:49;;;;;;;10.15;5.93;;;16.60;87.40;;;;;;5073229;28;20388;-58
2023/08/11 03:23:16;;;;;;;10.18;6.93;;;16.60;87.50;;;;;;5074985;28;20028;-58
2023/08/11 03:25:43;;;;;;;7.38;6.18;;;16.60;87.40;;;;;;5066891;28;20025;-57
2023/08/11 03:28:13;;;;;;;7.03;5.55;;;16.60;87.50;;;;;;5054833;28;20021;-56
2023/08/11 03:30:40;;;;;;;;;;;16.60;87.50;;;;;;5071131;28;20035;-53
2023/08/11 03:33:07;;;;;;;7.40;5.43;;;16.70;87.60;;;;;;5075074;28;19904;-54
2023/08/11 03:35:33;;;;;;;8.65;4.90;;;16.60;87.50;;;;;;5073945;28;20025;-57
2023/08/11 03:38:00;;;;;;;9.13;6.30;;;16.60;87.50;;;;;;5074007;28;20055;-57
2023/08/11 03:40:34;;;;;;;8.20;5.95;;;16.60;87.50;;;;;;5068235;28;20025;-57
2023/08/11 03:43:03;;;;;;;12.38;7.03;;;16.60;87.60;;;;;;5054756;28;20052;-56
2023/08/11 03:45:30;;;;;;;7.45;6.07;;;16.60;87.60;;;;;;5073901;28;20078;-54
2023/08/11 03:48:00;;;;;;;7.10;5.95;;;16.60;87.60;;;;;;5054768;28;20029;-55
2023/08/11 03:50:27;;;;;;;6.20;5.60;;;16.60;87.80;;;;;;5054746;28;20057;-55
2023/08/11 03:52:55;;;;;;;6.82;6.10;;;16.60;87.90;;;;;;5036881;28;20060;-55
2023/08/11 03:55:22;;;;;;;7.72;6.93;;;16.60;87.90;;;;;;5060751;28;20029;-57
2023/08/11 03:57:51;;;;;;;7.13;6.43;;;16.70;88.00;;;;;;5074325;28;20412;-56
2023/08/11 04:00:21;;;;;;;7.77;6.93;;;16.60;87.90;;;;;;5071369;28;20093;-56
2023/08/11 04:02:49;;;;;;;9.75;5.82;;;16.60;87.90;;;;;;5072881;28;20291;-58
2023/08/11 04:05:19;;;;;;;7.45;5.03;;;16.60;88.00;;;;;;5073404;28;20043;-56
2023/08/11 04:07:44;;;;;;;12.73;7.68;;;16.60;88.00;;;;;;5072972;28;20089;-56
2023/08/11 04:10:15;;;;;;;8.90;7.00;;;16.70;88.10;;;;;;5073085;28;20032;-55
2023/08/11 04:12:42;;;;;;;8.50;6.78;;;16.60;88.00;;;;;;5062227;28;20024;-54
2023/08/11 04:15:11;;;;;;;6.97;6.20;;;16.60;88.10;;;;;;5065967;28;20031;-57
2023/08/11 04:17:38;;;;;;;;;;;16.60;88.10;;;;;;5062155;28;20042;-53
2023/08/11 04:20:12;;;;;;;8.18;5.75;;;16.70;88.10;;;;;;5056350;28;19943;-55
2023/08/11 04:22:40;;;;;;;9.50;5.50;;;16.60;88.20;;;;;;5073076;28;20020;-56
2023/08/11 04:25:11;;;;;;;7.32;6.47;;;16.70;88.30;;;;;;5073026;28;20051;-56
2023/08/11 04:27:39;;;;;;;8.38;7.13;;;16.70;88.20;;;;;;5060902;28;20087;-57
2023/08/11 04:30:07;;;;;;;8.35;7.28;;;16.60;88.20;;;;;;5063574;28;20079;-57
2023/08/11 04:32:34;;;;;;;10.52;7.95;;;16.70;88.30;;;;;;5063121;28;20028;-56
2023/08/11 04:35:01;;;;;;;10.00;8.88;;;16.60;88.20;;;;;;5064347;28;20016;-56
2023/08/11 04:37:41;;;;;;;8.02;7.22;;;16.60;88.30;;;;;;5061637;28;20195;-56
2023/08/11 04:40:13;;;;;;;7.32;6.50;;;16.60;88.30;;;;;;5071129;28;20043;-58
2023/08/11 04:42:42;;;;;;;7.70;6.70;;;16.60;88.50;;;;;;5069116;28;20082;-55
2023/08/11 04:45:10;;;;;;;8.65;7.20;;;16.70;88.50;;;;;;5072725;28;20030;-57
2023/08/11 04:47:40;;;;;;;10.27;9.20;;;16.70;88.60;;;;;;5038098;28;20060;-55
2023/08/11 04:50:11;;;;;;;9.52;8.43;;;16.70;88.60;;;;;;5058527;28;20684;-54
2023/08/11 04:52:37;;;;;;;9.52;7.88;;;16.80;88.70;;;;;;5063034;28;20029;-56
2023/08/11 04:55:09;;;;;;;8.52;7.50;;;16.80;88.70;;;;;;5071110;28;20020;-57
2023/08/11 04:57:38;;;;;;;9.68;8.77;;;16.80;88.70;;;;;;5071302;28;20020;-57
2023/08/11 05:00:13;;;;;;;9.93;8.52;;;16.80;88.80;;;;;;5071870;28;20044;-57
2023/08/11 05:02:43;;;;;;;9.95;8.95;;;16.90;88.80;;;;;;5061456;28;20047;-57
2023/08/11 05:05:10;;;;;;;11.40;9.63;;;16.90;88.70;;;;;;5034684;28;20035;-54
2023/08/11 05:07:37;;;;;;;10.10;8.07;;;16.90;88.70;;;;;;5062768;28;20025;-55
2023/08/11 05:10:05;;;;;;;10.32;7.93;;;16.90;88.70;;;;;;5057798;28;20029;-55
2023/08/11 05:12:32;;;;;;;12.20;8.50;;;16.90;88.70;;;;;;5061469;28;20103;-56
2023/08/11 05:15:03;;;;;;;11.77;10.55;;;17.00;88.60;;;;;;5061913;28;20025;-57
2023/08/11 05:17:32;;;;;;;12.27;10.52;;;16.90;88.60;;;;;;5065893;28;20012;-56
2023/08/11 05:19:58;;;;;;;10.93;9.45;;;16.90;88.50;;;;;;5053247;28;20082;-57
2023/08/11 05:22:31;;;;;;;10.45;9.45;;;17.00;88.50;;;;;;5073092;28;20027;-55
2023/08/11 05:24:58;;;;;;;10.50;9.35;;;17.00;88.30;;;;;;5072205;28;20029;-59
2023/08/11 05:27:27;;;;;;;11.10;9.98;;;17.00;88.20;;;;;;5053301;28;20025;-58
2023/08/11 05:29:54;;;;;;;11.60;10.40;;;16.90;88.10;;;;;;5064641;28;20021;-56
2023/08/11 05:32:21;;;;;;;10.77;8.88;;;16.90;88.10;;;;;;5054870;28;20596;-59
2023/08/11 05:34:48;;;;;;;10.23;9.20;;;16.90;88.20;;;;;;5072225;28;20090;-56
2023/08/11 05:37:17;;;;;;;11.50;9.13;;;16.80;88.10;;;;;;5049041;28;20048;-56
2023/08/11 05:39:43;;;;;;;12.23;10.27;;;16.80;88.10;;;;;;5065280;28;20036;-58
2023/08/11 05:42:09;;;;;;;10.07;8.35;;;16.70;88.30;;;;;;5070115;28;20093;-58
2023/08/11 05:44:38;;;;;;;10.40;8.93;;;16.70;88.40;;;;;;5071529;28;20028;-58
2023/08/11 05:47:05;;;;;;;11.63;9.90;;;16.60;88.50;;;;;;5061464;28;20074;-58
2023/08/11 05:49:32;;;;;;;9.90;8.80;;;16.70;88.60;;;;;;5063683;28;20107;-57
2023/08/11 05:51:59;;;;;;;10.73;7.90;;;16.60;88.60;;;;;;5062192;28;20038;-57
2023/08/11 05:54:26;;;;;;;9.80;8.77;;;16.70;88.70;;;;;;5060834;28;20407;-58
2023/08/11 05:56:54;;;;;;;15.00;10.65;;;16.70;88.70;;;;;;5063837;28;20039;-58
2023/08/11 05:59:21;;;;;;;9.65;8.75;;;16.70;88.70;;;;;;5063514;28;20338;-57
2023/08/11 06:01:50;;;;;;;12.18;9.10;;;16.80;88.70;;;;;;5060707;28;20025;-56
2023/08/11 06:04:20;;;;;;;11.07;9.98;;;16.90;88.80;;;;;;5058152;28;20473;-57
2023/08/11 06:06:46;;;;;;;10.52;9.43;;;16.90;88.70;;;;;;5061353;28;20037;-57
2023/08/11 06:09:13;;;;;;;10.18;8.52;;;17.00;88.70;;;;;;5061963;28;20457;-58
2023/08/11 06:11:45;;;;;;;17.70;8.68;;;17.10;88.50;;;;;;5065008;28;20093;-59
2023/08/11 06:14:12;;;;;;;9.48;7.65;;;17.20;88.50;;;;;;5066748;28;20029;-58
2023/08/11 06:16:43;;;;;;;11.88;9.50;;;17.20;88.20;;;;;;5060620;28;20029;-59
2023/08/11 06:19:08;;;;;;;13.35;9.20;;;17.30;88.00;;;;;;5053113;28;20093;-58
2023/08/11 06:21:35;;;;;;;10.60;7.78;;;17.40;87.60;;;;;;5053483;28;20500;-57
2023/08/11 06:24:03;;;;;;;9.20;7.50;;;17.40;87.30;;;;;;5061821;28;20029;-57
2023/08/11 06:26:28;;;;;;;9.75;8.77;;;17.50;87.10;;;;;;5060563;28;20029;-57
2023/08/11 06:28:55;;;;;;;7.57;6.80;;;17.60;87.10;;;;;;5036614;28;20031;-58
2023/08/11 06:31:22;;;;;;;8.48;6.72;;;17.60;86.80;;;;;;5061747;28;20013;-57
2023/08/11 06:33:52;;;;;;;12.10;7.50;;;17.70;86.60;;;;;;5048009;28;20033;-57
2023/08/11 06:36:19;;;;;;;9.45;5.07;;;17.80;86.40;;;;;;5048381;28;20045;-59
2023/08/11 06:38:46;;;;;;;6.97;6.22;;;17.90;86.00;;;;;;5058315;28;20040;-58
2023/08/11 06:41:13;;;;;;;6.72;5.47;;;17.90;85.30;;;;;;5069136;28;20474;-58
2023/08/11 06:43:41;;;;;;;6.80;6.10;;;18.00;85.00;;;;;;5069968;28;20060;-57
2023/08/11 06:46:07;;;;;;;7.40;5.38;;;18.00;84.30;;;;;;5069851;28;20021;-57
2023/08/11 06:48:34;;;;;;;6.80;6.05;;;18.20;84.20;;;;;;5069917;28;20560;-59
2023/08/11 06:51:00;;;;;;;8.35;5.50;;;18.30;84.10;;;;;;5060277;28;20024;-58
2023/08/11 06:53:27;;;;;;;8.88;6.53;;;18.30;84.00;;;;;;5061276;28;20025;-59
2023/08/11 06:55:54;;;;;;;11.23;6.90;;;18.40;84.10;;;;;;5058255;28;20028;-59
2023/08/11 06:58:23;;;;;;;10.68;6.53;;;18.50;83.60;;;;;;5072035;28;20036;-58
2023/08/11 07:00:50;;;;;;;8.48;5.07;;;18.50;83.60;;;;;;5070187;28;20149;-59
2023/08/11 07:03:19;;;;;;;7.20;6.47;;;18.70;83.90;;;;;;5051464;28;20077;-58
2023/08/11 07:05:46;;;;;;;8.13;6.03;;;18.80;83.10;;;;;;5036324;28;20078;-59
2023/08/11 07:08:13;;;;;;;7.78;5.15;;;18.80;82.60;;;;;;5074171;28;20349;-59
2023/08/11 07:10:39;;;;;;;8.07;5.22;;;18.90;83.50;;;;;;5071275;28;20028;-56
2023/08/11 07:13:06;;;;;;;9.90;6.00;;;18.90;82.40;;;;;;5062799;28;20105;-58
2023/08/11 07:15:33;;;;;;;7.47;5.82;;;19.00;81.70;;;;;;5073251;28;20025;-58
2023/08/11 07:18:00;;;;;;;7.53;5.35;;;19.10;81.40;;;;;;5062311;28;20047;-59
2023/08/11 07:20:26;;;;;;;8.88;5.43;;;19.10;81.00;;;;;;5060010;28;20050;-59
2023/08/11 07:22:53;;;;;;;6.22;5.20;;;19.20;81.60;;;;;;5074793;28;20082;-58
2023/08/11 07:25:20;;;;;;;8.00;5.40;;;19.40;81.70;;;;;;5054535;28;20037;-56
2023/08/11 07:27:47;;;;;;;9.38;5.75;;;19.40;81.80;;;;;;5050570;28;20029;-57
2023/08/11 07:30:14;;;;;;;10.63;4.53;;;19.70;82.80;;;;;;5038099;28;20049;-57
2023/08/11 07:32:43;;;;;;;7.82;3.90;;;19.90;81.30;;;;;;5067629;28;20024;-58
2023/08/11 07:35:09;;;;;;;4.85;4.30;;;20.20;80.40;;;;;;5050698;28;20032;-58
2023/08/11 07:37:36;;;;;;;5.30;4.40;;;20.40;78.40;;;;;;5064488;28;20056;-58
2023/08/11 07:40:04;;;;;;;5.60;3.10;;;20.80;76.60;;;;;;5052659;28;20529;-58
2023/08/11 07:42:30;;;;;;;8.90;3.72;;;21.00;76.20;;;;;;5058228;28;20025;-58
2023/08/11 07:44:59;;;;;;;5.03;3.75;;;21.40;75.30;;;;;;5054927;28;20032;-58
2023/08/11 07:47:26;;;;;;;5.43;3.73;;;21.80;73.50;;;;;;5062944;28;20037;-58
2023/08/11 07:49:53;;;;;;;5.38;3.45;;;21.90;72.20;;;;;;5060187;28;20751;-59
2023/08/11 07:52:23;;;;;;;5.63;3.50;;;22.20;72.90;;;;;;5063067;28;20033;-59
2023/08/11 07:54:50;;;;;;;;;;;22.40;71.70;;;;;;5072030;28;20036;-59
2023/08/11 07:57:17;;;;;;;4.50;3.00;;;22.80;70.00;;;;;;5063108;28;20691;-57
2023/08/11 07:59:43;;;;;;;5.68;2.75;;;22.90;70.90;;;;;;5071940;28;20049;-58
2023/08/11 08:02:13;;;;;;;5.57;3.78;;;23.30;70.70;;;;;;5070876;28;20033;-58
2023/08/11 08:04:39;;;;;;;6.03;3.47;;;23.50;68.50;;;;;;5074140;28;20032;-58
2023/08/11 08:07:06;;;;;;;4.10;2.75;;;23.60;68.10;;;;;;5073755;28;20040;-58
2023/08/11 08:09:33;;;;;;;4.82;3.08;;;23.80;67.20;;;;;;5073051;28;20059;-59
2023/08/11 08:12:01;;;;;;;3.50;2.63;;;24.00;67.30;;;;;;5054432;28;20541;-59
2023/08/11 08:14:29;;;;;;;7.20;3.08;;;24.00;66.00;;;;;;5071713;28;20473;-59
2023/08/11 08:16:58;;;;;;;3.92;2.33;;;24.10;64.10;;;;;;5066524;28;20108;-58
2023/08/11 08:19:25;;;;;;;4.07;2.33;;;24.30;66.20;;;;;;5062852;28;20029;-60
2023/08/11 08:21:54;;;;;;;3.55;2.10;;;24.40;66.30;;;;;;5060460;28;20028;-59
2023/08/11 08:24:21;;;;;;;4.88;2.60;;;24.50;64.80;;;;;;5060284;28;20025;-58
2023/08/11 08:26:51;;;;;;;3.72;2.85;;;24.60;64.90;;;;;;5051678;28;20036;-59
2023/08/11 08:29:18;;;;;;;3.55;2.13;;;24.90;65.60;;;;;;5053001;28;20024;-59
2023/08/11 08:31:44;;;;;;;3.22;1.85;;;24.90;62.10;;;;;;5053379;28;20357;-58
2023/08/11 08:34:10;;;;;;;5.45;2.70;;;24.70;60.40;;;;;;5064299;28;20028;-58
2023/08/11 08:36:37;;;;;;;2.88;1.77;;;24.80;61.40;;;;;;5053781;28;20109;-59
2023/08/11 08:39:07;;;;;;;4.20;1.67;;;24.90;64.40;;;;;;5054135;28;20085;-58
2023/08/11 08:41:37;;;;;;;5.90;2.20;;;24.90;61.60;;;;;;5063985;28;20024;-55
2023/08/11 08:44:04;;;;;;;3.20;1.77;;;25.10;60.30;;;;;;5069997;28;20036;-58
2023/08/11 08:46:32;;;;;;;2.60;1.38;;;25.10;61.80;;;;;;5053295;28;20093;-57
2023/08/11 08:49:26;;;;;;;3.05;1.27;;;25.40;62.90;;;;;;5040577;28;20033;-58
2023/08/11 08:51:55;;;;;;;3.25;1.75;;;25.70;61.70;;;;;;5055057;28;20021;-58
2023/08/11 08:54:24;;;;;;;2.40;1.50;;;25.80;58.50;;;;;;5038659;28;20032;-57
2023/08/11 08:56:54;;;;;;;4.45;1.65;;;25.70;60.30;;;;;;5061700;28;20029;-58
2023/08/11 08:59:22;;;;;;;3.72;1.95;;;25.70;60.70;;;;;;5073378;28;20028;-58
2023/08/11 09:01:50;;;;;;;3.55;1.58;;;25.80;60.80;;;;;;5071891;28;20047;-56
2023/08/11 09:04:16;;;;;;;3.10;2.00;;;25.90;60.60;;;;;;5072608;28;20039;-57
2023/08/11 09:06:45;;;;;;;3.60;2.38;;;25.90;60.40;;;;;;5053836;28;20595;-58
2023/08/11 09:09:12;;;;;;;2.75;2.05;;;26.10;61.30;;;;;;5072427;28;20028;-58
2023/08/11 09:11:41;;;;;;;3.67;2.10;;;26.10;60.20;;;;;;5065027;28;20029;-57
2023/08/11 09:14:08;;;;;;;3.45;2.13;;;26.30;61.10;;;;;;5051090;28;20053;-59
2023/08/11 09:16:41;;;;;;;4.78;2.40;;;26.50;62.00;;;;;;5061975;28;20039;-59
2023/08/11 09:19:09;;;;;;;5.45;2.38;;;26.40;60.20;;;;;;5071976;28;20036;-58
2023/08/11 09:21:36;;;;;;;3.85;1.92;;;26.50;58.20;;;;;;5049953;28;20142;-58
2023/08/11 09:24:04;;;;;;;3.38;1.90;;;26.50;60.20;;;;;;5068040;28;20040;-57
2023/08/11 09:26:31;;;;;;;3.15;1.50;;;26.50;58.10;;;;;;5072153;28;20445;-58
2023/08/11 09:28:59;;;;;;;4.20;2.17;;;26.50;59.00;;;;;;5072523;28;20082;-59
2023/08/11 09:31:25;;;;;;;6.25;2.75;;;26.40;58.80;;;;;;5065027;28;20025;-58
2023/08/11 09:33:52;;;;;;;4.40;1.85;;;26.30;57.80;;;;;;5050567;28;20111;-59
2023/08/11 09:36:19;;;;;;;3.08;1.98;;;26.30;61.70;;;;;;5061894;28;20131;-58
2023/08/11 09:38:47;;;;;;;3.83;1.98;;;26.40;58.60;;;;;;5061940;28;20108;-59
2023/08/11 09:41:15;;;;;;;3.65;1.70;;;26.40;59.40;;;;;;5051616;28;20161;-58
2023/08/11 09:43:48;;;;;;;5.03;2.15;;;26.50;58.70;;;;;;5054865;28;20066;-57
2023/08/11 09:46:16;;;;;;;3.20;1.80;;;26.60;58.80;;;;;;5062026;28;20028;-57
2023/08/11 09:48:43;;;;;;;5.68;2.28;;;26.40;57.60;;;;;;5068297;28;20066;-59
2023/08/11 09:51:15;;;;;;;4.78;2.35;;;26.40;59.20;;;;;;5054259;28;20024;-55
2023/08/11 09:53:45;;;;;;;3.33;1.60;;;26.50;58.80;;;;;;5067273;28;20056;-59
2023/08/11 09:56:16;;;;;;;5.85;1.50;;;26.40;58.90;;;;;;5058801;28;20029;-58
2023/08/11 09:58:47;;;;;;;3.90;1.60;;;26.40;57.60;;;;;;5061367;28;20527;-57
2023/08/11 10:01:16;;;;;;;3.78;1.30;;;26.50;59.00;;;;;;5052536;28;20046;-59
2023/08/11 10:03:45;;;;;;;3.55;1.73;;;26.70;59.90;;;;;;5072464;28;20028;-59
2023/08/11 10:06:29;;;;;;;4.93;1.93;;;26.80;57.40;;;;;;5065064;28;20025;-56
2023/08/11 10:09:00;;;;;;;4.55;1.73;;;26.90;60.90;;;;;;5072096;28;20052;-56
2023/08/11 10:11:31;;;;;;;3.60;1.55;;;26.90;59.30;;;;;;5053281;28;20111;-59
2023/08/11 10:14:02;;;;;;;3.53;1.70;;;27.00;57.10;;;;;;5054113;28;20039;-58
2023/08/11 10:16:28;;;;;;;3.28;1.60;;;26.90;57.00;;;;;;5045997;28;20032;-57
2023/08/11 10:18:59;;;;;;;3.47;1.60;;;26.90;55.90;;;;;;5065600;28;20063;-59
2023/08/11 10:21:28;;;;;;;4.53;1.88;;;26.90;58.60;;;;;;5071480;28;20094;-59
2023/08/11 10:23:56;;;;;;;2.97;1.60;;;27.10;59.30;;;;;;5053645;28;20029;-59
2023/08/11 10:26:24;;;;;;;3.50;1.80;;;26.90;58.80;;;;;;5052764;28;20127;-57
2023/08/11 10:28:54;;;;;;;4.05;1.85;;;27.20;59.90;;;;;;5072082;28;20020;-60
2023/08/11 10:31:25;;;;;;;6.10;1.67;;;27.10;56.40;;;;;;5064589;28;20056;-60
2023/08/11 10:33:57;;;;;;;3.20;1.90;;;27.20;57.60;;;;;;5055228;28;20469;-60
2023/08/11 10:36:26;;;;;;;4.10;2.30;;;27.40;58.50;;;;;;5071134;28;20086;-60
2023/08/11 10:39:05;;;;;;;3.30;1.73;;;27.30;57.20;;;;;;5073702;28;20530;-60
2023/08/11 10:41:35;;;;;;;4.03;1.40;;;27.20;57.40;;;;;;5068019;28;20477;-60
2023/08/11 10:44:07;;;;;;;3.80;2.33;;;27.30;57.90;;;;;;5069757;28;20041;-60
2023/08/11 10:46:35;;;;;;;3.70;2.13;;;27.50;58.90;;;;;;5074697;28;20412;-60
2023/08/11 10:49:04;;;;;;;4.13;1.95;;;27.60;56.80;;;;;;5071233;28;20611;-60
2023/08/11 10:51:37;;;;;;;3.15;1.58;;;27.50;55.10;;;;;;5058087;28;20035;-60
2023/08/11 10:54:06;;;;;;;4.03;1.92;;;27.40;55.90;;;;;;5042699;28;20082;-60
2023/08/11 10:56:41;;;;;;;4.00;2.07;;;27.40;56.70;;;;;;5075968;28;20024;-60
2023/08/11 10:59:37;;;;;;;3.28;1.77;;;27.30;57.30;;;;;;5075998;28;20388;-60
2023/08/11 11:02:04;;;;;;;5.40;2.20;;;27.30;56.60;;;;;;5074124;28;20043;-59
2023/08/11 11:04:32;;;;;;;4.20;1.75;;;26.90;55.90;;;;;;5072810;28;20085;-59
2023/08/11 11:07:00;;;;;;;4.30;2.10;;;27.00;58.00;;;;;;5075506;28;20605;-58
2023/08/11 11:09:28;;;;;;;7.18;2.30;;;27.20;56.90;;;;;;5071813;28;20028;-59
2023/08/11 11:11:55;;;;;;;3.85;2.40;;;27.10;56.50;;;;;;5055979;28;20037;-59
2023/08/11 11:14:24;;;;;;;6.40;2.42;;;26.80;55.60;;;;;;5074901;28;20396;-56
2023/08/11 11:16:54;;;;;;;6.85;2.22;;;26.90;59.50;;;;;;5073559;28;20036;-57
2023/08/11 11:19:23;;;;;;;4.20;2.25;;;27.00;56.40;;;;;;5068902;28;20325;-58
2023/08/11 11:21:50;;;;;;;3.33;1.95;;;26.90;56.20;;;;;;5073419;28;20032;-57
2023/08/11 11:24:23;;;;;;;4.97;2.15;;;26.90;56.90;;;;;;5048646;28;20048;-59
2023/08/11 11:26:51;;;;;;;4.40;2.10;;;27.00;56.70;;;;;;5074320;28;20086;-59
2023/08/11 11:29:23;;;;;;;3.97;1.85;;;27.00;57.60;;;;;;5055029;28;20411;-59
2023/08/11 11:31:53;;;;;;;6.75;2.30;;;27.00;57.90;;;;;;5073066;28;20019;-57
2023/08/11 11:34:21;;;;;;;3.97;1.73;;;26.90;58.00;;;;;;5047207;28;20056;-58
2023/08/11 11:36:48;;;;;;;3.67;1.85;;;27.00;58.50;;;;;;5054284;28;20106;-54
2023/08/11 11:39:15;;;;;;;3.92;1.98;;;26.90;57.20;;;;;;5054770;28;20025;-59
2023/08/11 11:41:42;;;;;;;3.55;1.80;;;27.10;57.20;;;;;;5052708;28;20047;-59
2023/08/11 11:44:09;;;;;;;4.40;2.50;;;27.00;57.20;;;;;;5075127;28;20025;-60
2023/08/11 11:46:36;;;;;;;4.68;2.08;;;27.10;58.30;;;;;;5056446;28;20037;-60
2023/08/11 11:49:03;;;;;;;4.38;2.40;;;27.10;57.70;;;;;;5074036;28;20025;-59
2023/08/11 11:51:34;;;;;;;3.17;1.73;;;27.20;57.40;;;;;;5073926;28;20028;-58
2023/08/11 11:54:02;;;;;;;2.78;1.77;;;26.90;57.70;;;;;;5056979;28;20078;-57
2023/08/11 11:56:29;;;;;;;3.97;2.42;;;26.90;57.10;;;;;;5072820;28;20040;-58
2023/08/11 11:58:57;;;;;;;3.83;2.40;;;26.90;58.90;;;;;;5068211;28;20033;-58
2023/08/11 12:01:28;;;;;;;4.50;1.80;;;26.80;58.00;;;;;;5055636;28;20087;-58
2023/08/11 12:04:01;;;;;;;3.30;1.80;;;26.80;58.90;;;;;;5055811;28;20356;-58
2023/08/11 12:06:28;;;;;;;3.97;2.10;;;26.90;61.10;;;;;;5073427;28;20123;-58
2023/08/11 12:09:16;;;;;;;4.60;2.33;;;27.10;58.90;;;;;;5073860;28;20028;-59
2023/08/11 12:11:50;;;;;;;3.72;1.75;;;27.00;58.30;;;;;;5056286;28;20145;-58
2023/08/11 12:14:16;;;;;;;2.72;1.75;;;27.00;58.20;;;;;;5071335;28;20028;-59
2023/08/11 12:16:46;;;;;;;5.13;1.90;;;27.10;58.20;;;;;;5067729;28;20156;-58
2023/08/11 12:19:14;;;;;;;2.90;1.75;;;26.90;57.30;;;;;;5074280;28;20329;-59
2023/08/11 12:21:47;;;;;;;4.65;2.22;;;26.80;58.10;;;;;;5066940;28;20408;-58
2023/08/11 12:24:14;;;;;;;4.45;1.88;;;26.80;59.20;;;;;;5065305;28;20446;-58
2023/08/11 12:26:41;;;;;;;2.33;1.58;;;26.70;59.20;;;;;;5073916;28;20538;-55
2023/08/11 12:29:07;;;;;;;5.60;1.73;;;26.70;59.50;;;;;;5069560;28;20021;-58
2023/08/11 12:31:35;;;;;;;5.00;2.03;;;26.70;61.30;;;;;;5067515;28;20024;-59
2023/08/11 12:34:02;;;;;;;5.18;2.10;;;26.80;60.50;;;;;;5066883;28;20060;-57
2023/08/11 12:36:28;;;;;;;2.60;1.60;;;26.80;59.70;;;;;;5064756;28;20060;-56
2023/08/11 12:38:55;;;;;;;2.90;1.60;;;26.90;63.20;;;;;;5049193;28;20029;-57
2023/08/11 12:41:24;;;;;;;4.03;1.60;;;26.80;58.70;;;;;;5067619;28;20056;-58
2023/08/11 12:43:50;;;;;;;3.67;2.27;;;26.90;57.80;;;;;;5054958;28;20361;-57
2023/08/11 12:46:20;;;;;;;5.28;2.00;;;26.90;57.70;;;;;;5071388;28;20287;-58
2023/08/11 12:48:48;;;;;;;3.33;1.52;;;26.90;59.80;;;;;;5073649;28;20036;-58
2023/08/11 12:51:15;;;;;;;3.15;1.55;;;26.80;59.90;;;;;;5072861;28;20067;-57
2023/08/11 12:53:41;;;;;;;2.80;1.60;;;26.70;59.20;;;;;;5070790;28;20048;-59